createdAt,value
2022-12-20T00:00:32.689Z,87.63
2022-12-20T00:01:32.737Z,87.77
2022-12-20T00:02:32.898Z,87.77
2022-12-20T00:03:32.666Z,87.88
2022-12-20T00:04:32.645Z,87.98
2022-12-20T00:05:32.622Z,87.88
2022-12-20T00:06:32.633Z,88.29
2022-12-20T00:07:32.640Z,88.39
2022-12-20T00:08:32.595Z,88.49
2022-12-20T00:09:32.594Z,88.70
2022-12-20T00:10:32.582Z,88.84
2022-12-20T00:11:32.589Z,88.84
2022-12-20T00:12:32.569Z,89.04
2022-12-20T00:13:32.542Z,89.15
2022-12-20T00:14:32.522Z,89.36
2022-12-20T00:15:32.503Z,89.45
2022-12-20T00:16:32.524Z,89.76
2022-12-20T00:17:32.577Z,90.17
2022-12-20T00:18:32.483Z,90.79
2022-12-20T00:19:32.463Z,90.89
2022-12-20T00:20:32.453Z,90.89
2022-12-20T00:21:32.444Z,91.09
2022-12-20T00:22:32.423Z,91.20
2022-12-20T00:23:32.413Z,91.40
2022-12-20T00:24:32.411Z,91.61
2022-12-20T00:25:32.393Z,91.65
2022-12-20T00:26:32.396Z,91.96
2022-12-20T00:27:32.386Z,92.68
2022-12-20T00:28:32.353Z,92.68
2022-12-20T00:29:32.345Z,92.47
2022-12-20T00:30:32.350Z,92.16
2022-12-20T00:31:32.384Z,92.16
2022-12-20T00:32:32.333Z,92.16
2022-12-20T00:33:32.293Z,92.06
2022-12-20T00:34:32.291Z,91.96
2022-12-20T00:35:32.277Z,91.75
2022-12-20T00:36:32.295Z,91.65
2022-12-20T00:37:32.265Z,91.65
2022-12-20T00:38:32.247Z,91.65
2022-12-20T00:39:32.225Z,91.55
2022-12-20T00:40:32.220Z,91.65
2022-12-20T00:41:32.236Z,91.96
2022-12-20T00:42:32.210Z,92.06
2022-12-20T00:43:32.177Z,92.16
2022-12-20T00:44:32.174Z,92.16
2022-12-20T00:45:32.171Z,92.31
2022-12-20T00:46:32.369Z,92.31
2022-12-20T00:47:32.423Z,92.51
2022-12-20T00:48:32.129Z,92.51
2022-12-20T00:49:32.115Z,92.61
2022-12-20T00:50:32.100Z,92.82
2022-12-20T00:51:32.142Z,93.02
2022-12-20T00:52:32.088Z,92.93
2022-12-20T00:53:39.335Z,93.02
2022-12-20T00:54:39.315Z,93.02
2022-12-20T00:55:39.302Z,93.02
2022-12-20T00:56:32.063Z,93.13
2022-12-20T00:57:32.037Z,93.02
2022-12-20T00:58:32.003Z,93.02
2022-12-20T00:59:32.019Z,92.93
2022-12-20T01:00:31.999Z,92.82
2022-12-20T01:01:32.154Z,92.82
2022-12-20T01:02:32.132Z,92.61
2022-12-20T01:03:32.036Z,92.51
2022-12-20T01:04:31.970Z,92.31
2022-12-20T01:05:31.933Z,92.21
2022-12-20T01:06:31.949Z,92.21
2022-12-20T01:07:31.916Z,92.21
2022-12-20T01:08:31.899Z,92.31
2022-12-20T01:09:31.905Z,92.21
2022-12-20T01:10:31.899Z,92.21
2022-12-20T01:11:31.896Z,92.21
2022-12-20T01:12:31.865Z,92.21
2022-12-20T01:13:31.855Z,92.21
2022-12-20T01:14:31.835Z,92.21
2022-12-20T01:15:31.815Z,92.31
2022-12-20T01:16:31.871Z,92.41
2022-12-20T01:17:31.824Z,92.31
2022-12-20T01:18:31.791Z,92.41
2022-12-20T01:19:31.780Z,92.41
2022-12-20T01:20:31.772Z,92.41
2022-12-20T01:21:31.754Z,92.41
2022-12-20T01:22:31.746Z,92.31
2022-12-20T01:23:31.756Z,92.21
2022-12-20T01:24:31.725Z,92.21
2022-12-20T01:25:31.718Z,92.10
2022-12-20T01:26:31.725Z,92.00
2022-12-20T01:27:31.711Z,91.96
2022-12-20T01:28:31.676Z,91.96
2022-12-20T01:29:31.675Z,91.96
2022-12-20T01:30:31.688Z,91.86
2022-12-20T01:31:32.309Z,91.96
2022-12-20T01:32:31.645Z,91.96
2022-12-20T01:33:31.628Z,91.86
2022-12-20T01:34:31.619Z,91.86
2022-12-20T01:35:31.600Z,91.86
2022-12-20T01:36:31.636Z,91.96
2022-12-20T01:37:31.588Z,91.86
2022-12-20T01:38:31.555Z,91.75
2022-12-20T01:39:31.568Z,91.86
2022-12-20T01:40:31.536Z,91.96
2022-12-20T01:41:31.540Z,91.86
2022-12-20T01:42:31.528Z,91.86
2022-12-20T01:43:31.503Z,91.75
2022-12-20T01:44:31.502Z,91.90
2022-12-20T01:45:31.540Z,92.00
2022-12-20T01:46:31.563Z,92.00
2022-12-20T01:47:31.477Z,92.00
2022-12-20T01:48:31.457Z,92.10
2022-12-20T01:49:31.447Z,92.10
2022-12-20T01:50:31.660Z,92.21
2022-12-20T01:51:31.434Z,92.31
2022-12-20T01:52:31.409Z,92.31
2022-12-20T01:53:31.418Z,92.31
2022-12-20T01:54:31.386Z,92.41
2022-12-20T01:55:31.387Z,92.51
2022-12-20T01:56:31.359Z,92.51
2022-12-20T01:57:31.363Z,92.72
2022-12-20T01:58:31.348Z,92.61
2022-12-20T01:59:31.328Z,92.61
2022-12-20T02:00:31.316Z,92.51
2022-12-20T02:01:31.438Z,92.51
2022-12-20T02:02:31.379Z,92.41
2022-12-20T02:03:31.349Z,92.31
2022-12-20T02:04:31.283Z,92.41
2022-12-20T02:05:31.268Z,92.51
2022-12-20T02:06:31.252Z,92.51
2022-12-20T02:07:31.257Z,92.61
2022-12-20T02:08:31.237Z,92.61
2022-12-20T02:09:31.206Z,92.51
2022-12-20T02:10:31.204Z,92.41
2022-12-20T02:11:31.194Z,92.41
2022-12-20T02:12:31.202Z,92.51
2022-12-20T02:13:31.161Z,92.61
2022-12-20T02:14:31.161Z,92.72
2022-12-20T02:15:31.141Z,92.93
2022-12-20T02:16:31.172Z,93.02
2022-12-20T02:17:31.123Z,92.93
2022-12-20T02:18:31.120Z,93.02
2022-12-20T02:19:31.101Z,92.93
2022-12-20T02:20:31.109Z,92.82
2022-12-20T02:21:31.102Z,92.93
2022-12-20T02:22:31.080Z,93.02
2022-12-20T02:23:31.051Z,93.02
2022-12-20T02:24:31.049Z,93.13
2022-12-20T02:25:31.044Z,93.23
2022-12-20T02:26:31.025Z,93.27
2022-12-20T02:27:31.031Z,93.38
2022-12-20T02:28:31.000Z,93.48
2022-12-20T02:29:30.992Z,93.68
2022-12-20T02:30:30.971Z,93.79
2022-12-20T02:31:31.012Z,93.79
2022-12-20T02:32:30.967Z,93.89
2022-12-20T02:33:30.943Z,93.89
2022-12-20T02:34:30.941Z,93.89
2022-12-20T02:35:30.921Z,93.89
2022-12-20T02:36:30.921Z,93.99
2022-12-20T02:37:30.910Z,94.30
2022-12-20T02:38:30.875Z,94.40
2022-12-20T02:39:30.892Z,94.30
2022-12-20T02:40:30.874Z,94.15
2022-12-20T02:41:30.852Z,93.95
2022-12-20T02:42:30.860Z,93.85
2022-12-20T02:43:30.832Z,93.64
2022-12-20T02:44:30.813Z,93.44
2022-12-20T02:45:30.837Z,93.23
2022-12-20T02:46:30.857Z,93.13
2022-12-20T02:47:30.798Z,93.13
2022-12-20T02:48:30.773Z,93.13
2022-12-20T02:49:30.772Z,93.13
2022-12-20T02:50:30.751Z,93.13
2022-12-20T02:51:30.778Z,93.23
2022-12-20T02:52:30.735Z,93.13
2022-12-20T02:53:30.727Z,93.23
2022-12-20T02:54:30.708Z,93.33
2022-12-20T02:55:30.714Z,93.54
2022-12-20T02:56:30.706Z,93.64
2022-12-20T02:57:30.737Z,93.64
2022-12-20T02:58:30.675Z,93.74
2022-12-20T02:59:30.695Z,93.74
2022-12-20T03:00:30.671Z,93.74
2022-12-20T03:01:30.860Z,93.95
2022-12-20T03:02:30.805Z,94.15
2022-12-20T03:03:30.688Z,94.46
2022-12-20T03:04:30.595Z,94.77
2022-12-20T03:05:30.581Z,95.07
2022-12-20T03:06:30.635Z,95.39
2022-12-20T03:07:30.554Z,95.49
2022-12-20T03:08:37.793Z,95.79
2022-12-20T03:09:30.523Z,96.00
2022-12-20T03:10:37.772Z,96.51
2022-12-20T03:11:30.545Z,96.97
2022-12-20T03:12:30.519Z,97.17
2022-12-20T03:13:30.501Z,97.38
2022-12-20T03:14:30.494Z,97.48
2022-12-20T03:15:30.475Z,97.38
2022-12-20T03:16:30.544Z,97.17
2022-12-20T03:17:30.444Z,97.07
2022-12-20T03:18:30.464Z,97.07
2022-12-20T03:19:30.429Z,97.28
2022-12-20T03:20:30.428Z,96.97
2022-12-20T03:21:30.438Z,96.97
2022-12-20T03:22:30.392Z,96.77
2022-12-20T03:23:30.382Z,96.45
2022-12-20T03:24:30.382Z,96.35
2022-12-20T03:25:30.359Z,96.35
2022-12-20T03:26:30.358Z,96.31
2022-12-20T03:27:30.349Z,96.00
2022-12-20T03:28:30.334Z,95.79
2022-12-20T03:29:30.315Z,95.79
2022-12-20T03:30:30.329Z,95.59
2022-12-20T03:31:30.398Z,95.69
2022-12-20T03:32:30.299Z,95.69
2022-12-20T03:33:30.300Z,95.59
2022-12-20T03:34:30.266Z,95.39
2022-12-20T03:35:30.261Z,95.18
2022-12-20T03:36:30.266Z,95.18
2022-12-20T03:37:30.224Z,95.07
2022-12-20T03:38:30.227Z,94.98
2022-12-20T03:39:30.227Z,94.98
2022-12-20T03:40:30.189Z,94.98
2022-12-20T03:41:30.186Z,94.87
2022-12-20T03:42:30.173Z,94.98
2022-12-20T03:43:30.204Z,94.87
2022-12-20T03:44:30.179Z,94.98
2022-12-20T03:45:30.136Z,94.98
2022-12-20T03:46:30.237Z,95.12
2022-12-20T03:47:30.119Z,95.23
2022-12-20T03:48:30.107Z,95.32
2022-12-20T03:49:30.099Z,95.28
2022-12-20T03:50:30.084Z,95.39
2022-12-20T03:51:30.066Z,95.28
2022-12-20T03:52:30.069Z,95.18
2022-12-20T03:53:30.074Z,95.07
2022-12-20T03:54:30.038Z,95.07
2022-12-20T03:55:30.034Z,94.98
2022-12-20T03:56:30.023Z,94.98
2022-12-20T03:57:30.248Z,94.87
2022-12-20T03:58:29.996Z,94.98
2022-12-20T03:59:29.996Z,95.07
2022-12-20T04:00:29.973Z,95.39
2022-12-20T04:01:30.090Z,95.49
2022-12-20T04:02:30.115Z,95.39
2022-12-20T04:03:30.051Z,95.07
2022-12-20T04:04:29.913Z,94.77
2022-12-20T04:05:29.919Z,94.52
2022-12-20T04:06:29.933Z,94.32
2022-12-20T04:07:29.897Z,94.21
2022-12-20T04:08:29.882Z,94.11
2022-12-20T04:09:29.865Z,93.90
2022-12-20T04:10:29.847Z,93.90
2022-12-20T04:11:29.870Z,93.80
2022-12-20T04:12:29.842Z,93.80
2022-12-20T04:13:29.839Z,93.80
2022-12-20T04:14:29.817Z,93.80
2022-12-20T04:15:29.939Z,93.70
2022-12-20T04:16:29.847Z,93.60
2022-12-20T04:17:29.785Z,93.49
2022-12-20T04:18:29.768Z,93.49
2022-12-20T04:19:29.752Z,93.49
2022-12-20T04:20:29.748Z,93.49
2022-12-20T04:21:29.729Z,93.49
2022-12-20T04:22:29.706Z,93.49
2022-12-20T04:23:29.744Z,93.49
2022-12-20T04:24:29.703Z,93.70
2022-12-20T04:25:29.681Z,93.60
2022-12-20T04:26:29.680Z,93.49
2022-12-20T04:27:29.660Z,93.39
2022-12-20T04:28:29.653Z,93.49
2022-12-20T04:29:29.655Z,93.39
2022-12-20T04:30:29.630Z,93.29
2022-12-20T04:31:29.733Z,93.39
2022-12-20T04:32:29.597Z,93.49
2022-12-20T04:33:29.652Z,93.49
2022-12-20T04:34:29.600Z,93.49
2022-12-20T04:35:29.565Z,93.60
2022-12-20T04:36:29.582Z,93.60
2022-12-20T04:37:29.542Z,93.70
2022-12-20T04:38:29.562Z,93.60
2022-12-20T04:39:29.523Z,93.70
2022-12-20T04:40:29.521Z,93.80
2022-12-20T04:41:29.516Z,93.70
2022-12-20T04:42:29.497Z,93.60
2022-12-20T04:43:29.492Z,93.49
2022-12-20T04:44:29.478Z,93.60
2022-12-20T04:45:29.467Z,93.60
2022-12-20T04:46:29.516Z,93.54
2022-12-20T04:47:29.455Z,93.64
2022-12-20T04:49:30.403Z,93.85
2022-12-20T04:50:29.407Z,94.05
2022-12-20T04:51:29.396Z,94.15
2022-12-20T04:52:29.392Z,94.15
2022-12-20T04:53:29.401Z,94.11
2022-12-20T04:54:29.410Z,93.90
2022-12-20T04:55:29.363Z,93.90
2022-12-20T04:56:29.339Z,93.74
2022-12-20T04:57:29.318Z,93.60
2022-12-20T04:58:29.647Z,93.60
2022-12-20T04:59:29.306Z,93.60
2022-12-20T05:00:29.293Z,93.70
2022-12-20T05:01:29.373Z,93.70
2022-12-20T05:02:29.396Z,93.60
2022-12-20T05:03:29.287Z,93.49
2022-12-20T05:04:35.253Z,93.60
2022-12-20T05:05:30.259Z,93.49
2022-12-20T05:06:29.236Z,93.60
2022-12-20T05:07:29.206Z,93.60
2022-12-20T05:08:29.204Z,93.49
2022-12-20T05:09:29.215Z,93.64
2022-12-20T05:10:29.178Z,93.74
2022-12-20T05:11:29.187Z,93.74
2022-12-20T05:12:29.164Z,93.74
2022-12-20T05:13:29.158Z,93.64
2022-12-20T05:14:29.137Z,93.64
2022-12-20T05:15:29.137Z,93.74
2022-12-20T05:16:29.186Z,93.85
2022-12-20T05:17:29.102Z,93.85
2022-12-20T05:18:29.131Z,94.05
2022-12-20T05:19:29.081Z,94.15
2022-12-20T05:20:29.074Z,94.15
2022-12-20T05:21:29.048Z,94.05
2022-12-20T05:22:29.040Z,94.15
2022-12-20T05:23:29.018Z,94.26
2022-12-20T05:24:29.006Z,94.36
2022-12-20T05:25:29.014Z,94.26
2022-12-20T05:26:29.001Z,94.05
2022-12-20T05:27:28.976Z,94.05
2022-12-20T05:28:28.975Z,94.15
2022-12-20T05:29:28.987Z,94.15
2022-12-20T05:30:29.007Z,94.15
2022-12-20T05:31:28.990Z,94.26
2022-12-20T05:32:28.943Z,94.15
2022-12-20T05:33:33.869Z,94.05
2022-12-20T05:34:29.910Z,94.11
2022-12-20T05:35:28.902Z,94.01
2022-12-20T05:36:28.908Z,94.01
2022-12-20T05:37:28.899Z,93.90
2022-12-20T05:38:28.860Z,93.80
2022-12-20T05:39:28.926Z,93.70
2022-12-20T05:40:28.872Z,93.60
2022-12-20T05:41:28.854Z,93.70
2022-12-20T05:42:28.822Z,93.70
2022-12-20T05:43:28.810Z,93.80
2022-12-20T05:44:28.790Z,93.80
2022-12-20T05:45:28.798Z,93.70
2022-12-20T05:46:28.803Z,93.70
2022-12-20T05:47:28.760Z,93.60
2022-12-20T05:48:28.751Z,93.45
2022-12-20T05:49:28.765Z,93.45
2022-12-20T05:50:28.732Z,93.45
2022-12-20T05:51:28.710Z,93.45
2022-12-20T05:52:28.702Z,93.25
2022-12-20T05:53:28.780Z,93.04
2022-12-20T05:54:28.699Z,92.94
2022-12-20T05:55:28.662Z,93.04
2022-12-20T05:56:28.674Z,92.94
2022-12-20T05:57:28.650Z,92.83
2022-12-20T05:58:28.630Z,92.74
2022-12-20T05:59:28.655Z,92.63
2022-12-20T06:00:28.639Z,92.53
2022-12-20T06:01:28.644Z,92.43
2022-12-20T06:02:28.714Z,92.43
2022-12-20T06:03:28.781Z,92.43
2022-12-20T06:04:28.592Z,92.53
2022-12-20T06:05:28.560Z,92.63
2022-12-20T06:06:28.565Z,92.53
2022-12-20T06:07:28.535Z,92.43
2022-12-20T06:08:28.525Z,92.32
2022-12-20T06:09:28.540Z,92.18
2022-12-20T06:10:28.503Z,92.28
2022-12-20T06:11:30.474Z,92.43
2022-12-20T06:12:28.475Z,92.38
2022-12-20T06:13:28.474Z,92.18
2022-12-20T06:14:28.456Z,92.08
2022-12-20T06:15:28.443Z,91.97
2022-12-20T06:16:28.560Z,91.97
2022-12-20T06:17:28.422Z,91.97
2022-12-20T06:18:28.417Z,91.87
2022-12-20T06:19:28.429Z,91.87
2022-12-20T06:20:28.456Z,91.87
2022-12-20T06:21:28.390Z,91.87
2022-12-20T06:22:28.360Z,91.97
2022-12-20T06:23:28.356Z,92.08
2022-12-20T06:24:28.353Z,91.97
2022-12-20T06:25:28.326Z,92.18
2022-12-20T06:26:28.334Z,92.18
2022-12-20T06:27:28.316Z,92.18
2022-12-20T06:28:28.295Z,92.12
2022-12-20T06:29:28.298Z,92.12
2022-12-20T06:30:33.849Z,92.08
2022-12-20T06:31:29.344Z,92.08
2022-12-20T06:32:28.245Z,92.12
2022-12-20T06:33:28.249Z,92.22
2022-12-20T06:34:28.256Z,92.22
2022-12-20T06:35:28.207Z,92.22
2022-12-20T06:36:28.218Z,92.22
2022-12-20T06:37:28.196Z,92.22
2022-12-20T06:38:28.180Z,92.32
2022-12-20T06:39:28.197Z,92.32
2022-12-20T06:40:28.147Z,92.32
2022-12-20T06:41:28.157Z,92.32
2022-12-20T06:42:28.139Z,92.43
2022-12-20T06:43:28.129Z,92.53
2022-12-20T06:44:28.138Z,92.63
2022-12-20T06:45:28.174Z,92.74
2022-12-20T06:46:28.130Z,92.83
2022-12-20T06:47:28.079Z,92.83
2022-12-20T06:48:28.077Z,92.83
2022-12-20T06:49:28.069Z,92.94
2022-12-20T06:50:28.034Z,93.04
2022-12-20T06:51:28.058Z,92.94
2022-12-20T06:52:28.023Z,92.94
2022-12-20T06:53:28.019Z,92.98
2022-12-20T06:54:28.018Z,93.08
2022-12-20T06:55:28.009Z,93.19
2022-12-20T06:56:27.976Z,93.19
2022-12-20T06:57:27.968Z,93.19
2022-12-20T06:58:27.954Z,93.19
2022-12-20T06:59:27.940Z,93.29
2022-12-20T07:00:27.937Z,93.29
2022-12-20T07:01:28.108Z,93.29
2022-12-20T07:02:28.394Z,93.19
2022-12-20T07:03:28.059Z,93.15
2022-12-20T07:04:27.887Z,92.94
2022-12-20T07:05:27.866Z,92.83
2022-12-20T07:06:27.871Z,92.74
2022-12-20T07:07:27.840Z,92.74
2022-12-20T07:08:27.842Z,92.74
2022-12-20T07:09:27.820Z,92.63
2022-12-20T07:10:27.821Z,92.53
2022-12-20T07:11:27.824Z,92.43
2022-12-20T07:12:27.789Z,92.43
2022-12-20T07:13:27.772Z,92.43
2022-12-20T07:14:27.779Z,92.53
2022-12-20T07:15:27.770Z,92.53
2022-12-20T07:16:27.789Z,92.43
2022-12-20T07:17:27.740Z,92.32
2022-12-20T07:18:27.737Z,92.43
2022-12-20T07:19:27.710Z,92.43
2022-12-20T07:20:27.699Z,92.43
2022-12-20T07:21:27.721Z,92.32
2022-12-20T07:22:27.681Z,92.22
2022-12-20T07:23:27.670Z,92.22
2022-12-20T07:24:27.656Z,92.43
2022-12-20T07:25:27.669Z,92.53
2022-12-20T07:26:27.665Z,92.43
2022-12-20T07:27:27.623Z,92.43
2022-12-20T07:28:27.626Z,92.43
2022-12-20T07:29:27.623Z,92.74
2022-12-20T07:30:27.611Z,92.74
2022-12-20T07:31:27.627Z,92.74
2022-12-20T07:32:27.569Z,92.74
2022-12-20T07:33:27.555Z,92.63
2022-12-20T07:34:27.530Z,92.53
2022-12-20T07:35:27.545Z,92.53
2022-12-20T07:36:27.543Z,92.43
2022-12-20T07:37:27.506Z,92.43
2022-12-20T07:38:27.491Z,92.43
2022-12-20T07:39:27.535Z,92.22
2022-12-20T07:40:27.465Z,91.97
2022-12-20T07:41:27.465Z,91.97
2022-12-20T07:42:33.593Z,91.97
2022-12-20T07:43:28.495Z,91.97
2022-12-20T07:44:27.424Z,91.87
2022-12-20T07:45:27.494Z,91.87
2022-12-20T07:46:27.448Z,91.97
2022-12-20T07:47:27.404Z,92.08
2022-12-20T07:48:27.386Z,91.97
2022-12-20T07:49:27.397Z,91.87
2022-12-20T07:50:27.377Z,91.67
2022-12-20T07:51:27.344Z,91.67
2022-12-20T07:52:27.362Z,91.56
2022-12-20T07:53:27.338Z,91.46
2022-12-20T07:54:27.318Z,91.36
2022-12-20T07:55:27.329Z,91.56
2022-12-20T07:56:27.325Z,91.56
2022-12-20T07:57:27.277Z,91.56
2022-12-20T07:58:27.266Z,91.67
2022-12-20T07:59:27.275Z,91.56
2022-12-20T08:00:27.302Z,91.46
2022-12-20T08:01:27.387Z,91.42
2022-12-20T08:02:27.377Z,91.46
2022-12-20T08:03:27.333Z,91.52
2022-12-20T08:04:27.211Z,91.52
2022-12-20T08:05:27.216Z,91.42
2022-12-20T08:06:27.184Z,91.31
2022-12-20T08:07:27.174Z,91.11
2022-12-20T08:08:27.172Z,90.91
2022-12-20T08:09:27.157Z,90.81
2022-12-20T08:10:27.148Z,90.81
2022-12-20T08:11:27.116Z,90.70
2022-12-20T08:12:27.115Z,90.81
2022-12-20T08:13:27.110Z,90.81
2022-12-20T08:14:27.100Z,90.91
2022-12-20T08:15:27.093Z,90.91
2022-12-20T08:16:27.147Z,90.91
2022-12-20T08:17:27.057Z,91.01
2022-12-20T08:18:27.059Z,90.91
2022-12-20T08:19:32.156Z,90.91
2022-12-20T08:20:28.050Z,91.01
2022-12-20T08:21:27.009Z,91.11
2022-12-20T08:22:27.017Z,91.26
2022-12-20T08:23:26.997Z,91.36
2022-12-20T08:24:26.997Z,91.36
2022-12-20T08:25:26.968Z,91.56
2022-12-20T08:26:26.957Z,91.56
2022-12-20T08:27:26.951Z,91.46
2022-12-20T08:28:27.192Z,91.46
2022-12-20T08:29:26.930Z,91.31
2022-12-20T08:30:26.933Z,91.11
2022-12-20T08:31:27.001Z,91.01
2022-12-20T08:32:26.891Z,90.91
2022-12-20T08:33:26.898Z,90.91
2022-12-20T08:34:26.868Z,90.91
2022-12-20T08:35:26.875Z,90.81
2022-12-20T08:36:26.841Z,90.70
2022-12-20T08:37:26.838Z,90.70
2022-12-20T08:38:26.817Z,90.70
2022-12-20T08:39:26.830Z,90.70
2022-12-20T08:40:26.809Z,90.81
2022-12-20T08:41:26.797Z,90.70
2022-12-20T08:42:26.762Z,90.70
2022-12-20T08:43:26.773Z,90.70
2022-12-20T08:44:26.758Z,90.70
2022-12-20T08:45:26.763Z,90.70
2022-12-20T08:46:26.814Z,90.70
2022-12-20T08:47:26.721Z,90.70
2022-12-20T08:48:26.692Z,91.01
2022-12-20T08:49:26.694Z,90.91
2022-12-20T08:50:26.683Z,90.91
2022-12-20T08:51:26.775Z,90.91
2022-12-20T08:52:26.655Z,90.91
2022-12-20T08:53:26.645Z,90.91
2022-12-20T08:54:26.629Z,90.91
2022-12-20T08:55:29.020Z,90.81
2022-12-20T08:56:26.623Z,90.91
2022-12-20T08:57:26.612Z,91.01
2022-12-20T08:58:26.617Z,91.01
2022-12-20T08:59:26.586Z,91.11
2022-12-20T09:00:26.584Z,91.22
2022-12-20T09:01:26.614Z,91.11
2022-12-20T09:02:26.707Z,91.11
2022-12-20T09:03:26.560Z,91.11
2022-12-20T09:04:26.531Z,91.11
2022-12-20T09:05:26.493Z,90.91
2022-12-20T09:06:26.500Z,90.91
2022-12-20T09:07:26.495Z,90.91
2022-12-20T09:08:26.493Z,90.81
2022-12-20T09:09:26.464Z,90.70
2022-12-20T09:10:26.445Z,90.70
2022-12-20T09:11:26.464Z,90.70
2022-12-20T09:12:26.424Z,90.70
2022-12-20T09:13:26.415Z,90.60
2022-12-20T09:14:26.434Z,90.60
2022-12-20T09:15:26.436Z,90.60
2022-12-20T09:16:26.433Z,90.70
2022-12-20T09:17:26.395Z,90.81
2022-12-20T09:18:26.359Z,90.81
2022-12-20T09:19:26.348Z,90.91
2022-12-20T09:20:26.324Z,91.01
2022-12-20T09:21:26.347Z,91.11
2022-12-20T09:22:26.306Z,91.26
2022-12-20T09:23:26.304Z,91.36
2022-12-20T09:24:26.288Z,91.46
2022-12-20T09:25:26.276Z,91.46
2022-12-20T09:26:26.283Z,91.46
2022-12-20T09:27:26.265Z,91.56
2022-12-20T09:28:26.241Z,91.56
2022-12-20T09:29:32.181Z,91.56
2022-12-20T09:30:27.248Z,91.67
2022-12-20T09:31:26.324Z,91.77
2022-12-20T09:32:26.197Z,91.77
2022-12-20T09:33:26.183Z,91.87
2022-12-20T09:34:26.177Z,91.77
2022-12-20T09:35:26.173Z,91.87
2022-12-20T09:36:26.163Z,91.87
2022-12-20T09:37:26.417Z,91.87
2022-12-20T09:38:26.134Z,91.97
2022-12-20T09:39:26.137Z,91.87
2022-12-20T09:40:26.102Z,91.77
2022-12-20T09:41:26.119Z,91.77
2022-12-20T09:42:26.094Z,91.63
2022-12-20T09:43:26.060Z,91.52
2022-12-20T09:44:26.097Z,91.42
2022-12-20T09:45:26.035Z,91.42
2022-12-20T09:46:26.109Z,91.31
2022-12-20T09:47:26.023Z,91.11
2022-12-20T09:48:26.010Z,90.91
2022-12-20T09:49:26.008Z,90.77
2022-12-20T09:50:26.011Z,90.56
2022-12-20T09:51:25.991Z,90.36
2022-12-20T09:52:25.988Z,90.36
2022-12-20T09:53:25.961Z,90.25
2022-12-20T09:54:25.966Z,90.05
2022-12-20T09:55:25.925Z,90.05
2022-12-20T09:56:25.908Z,90.05
2022-12-20T09:57:25.905Z,89.94
2022-12-20T09:58:25.922Z,89.59
2022-12-20T09:59:25.892Z,89.59
2022-12-20T10:00:25.879Z,89.59
2022-12-20T10:01:28.749Z,89.70
2022-12-20T10:02:55.274Z,89.59
2022-12-20T10:03:26.930Z,89.74
2022-12-20T10:04:25.976Z,89.84
2022-12-20T10:05:25.920Z,89.84
2022-12-20T10:06:25.811Z,89.94
2022-12-20T10:07:25.819Z,89.94
2022-12-20T10:08:25.797Z,90.15
2022-12-20T10:09:25.771Z,90.25
2022-12-20T10:10:25.751Z,90.25
2022-12-20T10:11:25.743Z,90.25
2022-12-20T10:12:25.752Z,90.25
2022-12-20T10:13:25.732Z,90.25
2022-12-20T10:14:25.724Z,90.36
2022-12-20T10:15:25.707Z,90.45
2022-12-20T10:16:25.745Z,90.56
2022-12-20T10:17:30.603Z,90.66
2022-12-20T10:18:26.664Z,90.66
2022-12-20T10:19:25.665Z,90.86
2022-12-20T10:20:25.622Z,90.86
2022-12-20T10:21:25.629Z,90.86
2022-12-20T10:22:25.623Z,90.77
2022-12-20T10:23:32.743Z,90.77
2022-12-20T10:24:26.606Z,90.66
2022-12-20T10:25:25.585Z,90.66
2022-12-20T10:26:25.570Z,90.66
2022-12-20T10:27:25.864Z,90.56
2022-12-20T10:28:25.544Z,90.56
2022-12-20T10:29:25.532Z,90.56
2022-12-20T10:30:25.519Z,90.36
2022-12-20T10:31:25.611Z,90.25
2022-12-20T10:32:26.475Z,90.36
2022-12-20T10:33:25.493Z,90.21
2022-12-20T10:34:26.422Z,90.00
2022-12-20T10:35:25.461Z,89.90
2022-12-20T10:36:25.454Z,89.80
2022-12-20T10:37:25.449Z,89.70
2022-12-20T10:38:25.434Z,89.29
2022-12-20T10:39:25.425Z,89.29
2022-12-20T10:40:34.417Z,89.09
2022-12-20T10:41:26.385Z,89.18
2022-12-20T10:42:25.390Z,89.09
2022-12-20T10:43:25.399Z,88.94
2022-12-20T10:44:25.362Z,88.53
2022-12-20T10:45:26.866Z,88.23
2022-12-20T10:46:25.373Z,87.88
2022-12-20T10:47:25.329Z,87.77
2022-12-20T10:48:25.489Z,87.77
2022-12-20T10:49:25.298Z,88.02
2022-12-20T10:50:25.278Z,88.12
2022-12-20T10:51:25.268Z,88.12
2022-12-20T10:52:25.273Z,88.23
2022-12-20T10:53:25.253Z,88.43
2022-12-20T10:54:25.248Z,88.53
2022-12-20T10:55:25.216Z,88.53
2022-12-20T10:56:25.216Z,88.43
2022-12-20T10:57:25.218Z,88.43
2022-12-20T10:58:25.185Z,88.43
2022-12-20T10:59:25.197Z,88.53
2022-12-20T11:00:25.167Z,88.64
2022-12-20T11:01:25.215Z,88.88
2022-12-20T11:02:25.371Z,88.78
2022-12-20T11:03:25.305Z,88.78
2022-12-20T11:04:25.219Z,88.88
2022-12-20T11:05:25.630Z,88.78
2022-12-20T11:06:25.097Z,88.88
2022-12-20T11:07:25.097Z,88.98
2022-12-20T11:08:36.585Z,89.09
2022-12-20T11:09:26.073Z,89.18
2022-12-20T11:10:25.206Z,89.09
2022-12-20T11:11:25.056Z,88.98
2022-12-20T11:12:25.080Z,88.88
2022-12-20T11:13:25.026Z,88.88
2022-12-20T11:14:25.019Z,88.88
2022-12-20T11:15:32.749Z,88.88
2022-12-20T11:16:26.022Z,89.09
2022-12-20T11:17:24.982Z,89.09
2022-12-20T11:18:24.946Z,89.09
2022-12-20T11:19:24.985Z,89.09
2022-12-20T11:20:24.991Z,88.98
2022-12-20T11:21:28.321Z,88.98
2022-12-20T11:22:24.979Z,89.09
2022-12-20T11:23:24.901Z,88.84
2022-12-20T11:24:24.872Z,88.23
2022-12-20T11:25:24.871Z,87.47
2022-12-20T11:26:24.870Z,86.30
2022-12-20T11:27:24.871Z,85.65
2022-12-20T11:28:24.838Z,84.80
2022-12-20T11:29:24.855Z,83.94
2022-12-20T11:30:24.823Z,83.23
2022-12-20T11:31:24.833Z,82.37
2022-12-20T11:32:24.783Z,81.52
2022-12-20T11:33:24.781Z,81.01
2022-12-20T11:34:24.790Z,80.87
2022-12-20T11:35:24.761Z,80.56
2022-12-20T11:36:24.753Z,80.77
2022-12-20T11:37:24.758Z,80.66
2022-12-20T11:38:24.722Z,81.01
2022-12-20T11:39:24.720Z,80.91
2022-12-20T11:40:24.708Z,80.91
2022-12-20T11:41:24.679Z,81.01
2022-12-20T11:42:24.723Z,80.91
2022-12-20T11:43:24.670Z,80.91
2022-12-20T11:44:26.571Z,80.70
2022-12-20T11:45:24.631Z,80.50
2022-12-20T11:46:24.678Z,80.36
2022-12-20T11:47:24.634Z,80.16
2022-12-20T11:48:24.603Z,79.95
2022-12-20T11:49:24.596Z,79.64
2022-12-20T11:50:24.602Z,79.44
2022-12-20T11:51:26.963Z,79.44
2022-12-20T11:52:24.601Z,79.34
2022-12-20T11:53:24.544Z,79.24
2022-12-20T11:54:24.574Z,79.10
2022-12-20T11:55:24.517Z,79.10
2022-12-20T11:56:24.519Z,79.20
2022-12-20T11:57:24.508Z,79.20
2022-12-20T11:58:24.510Z,79.20
2022-12-20T11:59:24.485Z,79.34
2022-12-20T12:00:24.485Z,79.54
2022-12-20T12:01:24.533Z,79.54
2022-12-20T12:02:24.498Z,79.64
2022-12-20T12:03:24.568Z,79.85
2022-12-20T12:04:24.437Z,79.85
2022-12-20T12:05:24.460Z,79.95
2022-12-20T12:06:24.406Z,80.16
2022-12-20T12:07:24.383Z,79.95
2022-12-20T12:08:24.377Z,79.75
2022-12-20T12:09:24.379Z,79.64
2022-12-20T12:10:24.384Z,79.54
2022-12-20T12:12:25.331Z,79.41
2022-12-20T12:13:24.387Z,79.20
2022-12-20T12:14:24.315Z,79.00
2022-12-20T12:15:24.298Z,79.10
2022-12-20T12:16:24.334Z,79.00
2022-12-20T12:17:24.291Z,79.00
2022-12-20T12:18:24.271Z,79.20
2022-12-20T12:19:24.249Z,79.20
2022-12-20T12:20:24.256Z,79.34
2022-12-20T12:21:24.238Z,79.44
2022-12-20T12:22:24.218Z,79.34
2022-12-20T12:23:24.252Z,79.41
2022-12-20T12:24:24.207Z,79.10
2022-12-20T12:25:24.182Z,79.10
2022-12-20T12:26:24.180Z,79.10
2022-12-20T12:27:24.189Z,79.10
2022-12-20T12:28:24.414Z,79.10
2022-12-20T12:29:24.142Z,79.10
2022-12-20T12:30:24.131Z,79.20
2022-12-20T12:31:24.145Z,79.00
2022-12-20T12:32:24.108Z,78.80
2022-12-20T12:33:25.744Z,78.39
2022-12-20T12:34:24.108Z,78.08
2022-12-20T12:35:24.070Z,77.84
2022-12-20T12:36:24.063Z,77.64
2022-12-20T12:37:24.060Z,77.53
2022-12-20T12:38:24.088Z,77.64
2022-12-20T12:39:24.021Z,77.84
2022-12-20T12:40:24.020Z,78.05
2022-12-20T12:41:24.033Z,77.84
2022-12-20T12:42:24.006Z,77.84
2022-12-20T12:43:24.335Z,78.15
2022-12-20T12:44:23.980Z,78.05
2022-12-20T12:45:23.977Z,78.15
2022-12-20T12:46:24.011Z,78.28
2022-12-20T12:47:24.195Z,78.19
2022-12-20T12:48:23.945Z,78.08
2022-12-20T12:49:23.911Z,78.05
2022-12-20T12:50:23.907Z,77.84
2022-12-20T12:51:23.898Z,77.84
2022-12-20T12:52:23.888Z,77.64
2022-12-20T12:53:23.893Z,77.53
2022-12-20T12:54:23.869Z,77.53